sensor_id;sensor_type;location;lat;lon;timestamp;pressure;altitude;pressure_sealevel;temperature;humidity
37368;BME280;23240;43.210;27.910;2023-04-06T00:33:25;100747.00;;;5.58;100.00
37368;BME280;23240;43.210;27.910;2023-04-06T00:35:51;100747.09;;;5.57;100.00
37368;BME280;23240;43.210;27.910;2023-04-06T00:38:16;100753.25;;;5.57;100.00
37368;BME280;23240;43.210;27.910;2023-04-06T00:40:45;100742.06;;;5.52;100.00
37368;BME280;23240;43.210;27.910;2023-04-06T00:43:13;100737.88;;;5.48;100.00
37368;BME280;23240;43.210;27.910;2023-04-06T00:45:39;100741.28;;;5.50;100.00
37368;BME280;23240;43.210;27.910;2023-04-06T00:48:06;100747.38;;;5.52;100.00
37368;BME280;23240;43.210;27.910;2023-04-06T00:50:32;100730.31;;;5.56;100.00
37368;BME280;23240;43.210;27.910;2023-04-06T00:52:58;100737.88;;;5.48;100.00
37368;BME280;23240;43.210;27.910;2023-04-06T00:55:23;100734.66;;;5.43;100.00
37368;BME280;23240;43.210;27.910;2023-04-06T00:57:48;100734.13;;;5.36;100.00
37368;BME280;23240;43.210;27.910;2023-04-06T01:00:15;100728.19;;;5.33;100.00
37368;BME280;23240;43.210;27.910;2023-04-06T01:02:41;100731.78;;;5.32;100.00
37368;BME280;23240;43.210;27.910;2023-04-06T01:05:06;100734.03;;;5.24;100.00
37368;BME280;23240;43.210;27.910;2023-04-06T01:07:32;100731.47;;;5.22;100.00
37368;BME280;23240;43.210;27.910;2023-04-06T01:09:57;100729.44;;;5.11;100.00
37368;BME280;23240;43.210;27.910;2023-04-06T01:12:22;100721.47;;;5.11;100.00
37368;BME280;23240;43.210;27.910;2023-04-06T01:14:48;100728.78;;;5.08;100.00
37368;BME280;23240;43.210;27.910;2023-04-06T01:17:13;100727.31;;;5.02;100.00
37368;BME280;23240;43.210;27.910;2023-04-06T01:19:39;100725.19;;;5.09;100.00
37368;BME280;23240;43.210;27.910;2023-04-06T01:22:05;100722.59;;;5.07;100.00
37368;BME280;23240;43.210;27.910;2023-04-06T01:24:31;100722.22;;;4.99;100.00
37368;BME280;23240;43.210;27.910;2023-04-06T01:26:56;100721.25;;;5.00;100.00
37368;BME280;23240;43.210;27.910;2023-04-06T01:29:22;100713.66;;;4.94;100.00
37368;BME280;23240;43.210;27.910;2023-04-06T01:31:47;100718.72;;;4.99;100.00
37368;BME280;23240;43.210;27.910;2023-04-06T01:34:12;100708.94;;;4.99;100.00
37368;BME280;23240;43.210;27.910;2023-04-06T01:36:38;100716.91;;;4.99;100.00
37368;BME280;23240;43.210;27.910;2023-04-06T01:39:03;100716.13;;;4.97;100.00
37368;BME280;23240;43.210;27.910;2023-04-06T01:41:28;100712.25;;;5.03;100.00
37368;BME280;23240;43.210;27.910;2023-04-06T01:43:54;100714.03;;;5.02;100.00
37368;BME280;23240;43.210;27.910;2023-04-06T01:46:20;100710.47;;;5.03;100.00
37368;BME280;23240;43.210;27.910;2023-04-06T01:48:45;100715.69;;;5.05;100.00
37368;BME280;23240;43.210;27.910;2023-04-06T01:51:10;100713.72;;;5.08;100.00
37368;BME280;23240;43.210;27.910;2023-04-06T01:53:36;100711.06;;;5.08;100.00
37368;BME280;23240;43.210;27.910;2023-04-06T01:56:01;100710.09;;;5.09;100.00
37368;BME280;23240;43.210;27.910;2023-04-06T01:58:26;100718.06;;;5.09;100.00
37368;BME280;23240;43.210;27.910;2023-04-06T02:00:52;100712.75;;;5.09;100.00
37368;BME280;23240;43.210;27.910;2023-04-06T02:03:17;100713.50;;;5.11;100.00
37368;BME280;23240;43.210;27.910;2023-04-06T02:05:42;100710.38;;;5.05;100.00
37368;BME280;23240;43.210;27.910;2023-04-06T02:08:08;100710.28;;;5.06;100.00
37368;BME280;23240;43.210;27.910;2023-04-06T02:10:33;100707.44;;;5.09;100.00
37368;BME280;23240;43.210;27.910;2023-04-06T02:12:59;100706.31;;;5.13;100.00
37368;BME280;23240;43.210;27.910;2023-04-06T02:15:25;100700.72;;;5.04;100.00
37368;BME280;23240;43.210;27.910;2023-04-06T02:17:50;100702.09;;;4.95;100.00
37368;BME280;23240;43.210;27.910;2023-04-06T02:20:16;100696.78;;;4.95;100.00
37368;BME280;23240;43.210;27.910;2023-04-06T02:22:41;100699.59;;;4.92;100.00
37368;BME280;23240;43.210;27.910;2023-04-06T02:25:07;100702.09;;;4.95;100.00
37368;BME280;23240;43.210;27.910;2023-04-06T02:27:32;100705.69;;;4.94;100.00
37368;BME280;23240;43.210;27.910;2023-04-06T02:29:58;100704.06;;;4.92;100.00
37368;BME280;23240;43.210;27.910;2023-04-06T02:32:23;100702.09;;;4.95;100.00
37368;BME280;23240;43.210;27.910;2023-04-06T02:34:49;100703.63;;;4.99;100.00
37368;BME280;23240;43.210;27.910;2023-04-06T02:37:14;100696.25;;;5.04;100.00
37368;BME280;23240;43.210;27.910;2023-04-06T02:39:39;100693.00;;;4.99;100.00
37368;BME280;23240;43.210;27.910;2023-04-06T02:42:05;100695.56;;;5.01;100.00
37368;BME280;23240;43.210;27.910;2023-04-06T02:44:30;100693.88;;;5.00;100.00
37368;BME280;23240;43.210;27.910;2023-04-06T02:46:55;100696.63;;;4.98;100.00
37368;BME280;23240;43.210;27.910;2023-04-06T02:49:21;100694.81;;;4.99;100.00
37368;BME280;23240;43.210;27.910;2023-04-06T02:51:46;100697.22;;;4.87;100.00
37368;BME280;23240;43.210;27.910;2023-04-06T02:54:11;100699.22;;;4.84;100.00
37368;BME280;23240;43.210;27.910;2023-04-06T02:56:37;100700.72;;;4.88;100.00
37368;BME280;23240;43.210;27.910;2023-04-06T02:59:02;100701.25;;;4.95;100.00
37368;BME280;23240;43.210;27.910;2023-04-06T03:01:27;100705.50;;;4.97;100.00
37368;BME280;23240;43.210;27.910;2023-04-06T03:03:53;100702.69;;;5.00;100.00
37368;BME280;23240;43.210;27.910;2023-04-06T03:06:18;100703.34;;;5.04;100.00
37368;BME280;23240;43.210;27.910;2023-04-06T03:08:43;100691.31;;;4.98;100.00
37368;BME280;23240;43.210;27.910;2023-04-06T03:11:09;100695.84;;;4.96;100.00
37368;BME280;23240;43.210;27.910;2023-04-06T03:13:36;100696.31;;;5.03;100.00
37368;BME280;23240;43.210;27.910;2023-04-06T03:16:03;100694.72;;;5.00;100.00
37368;BME280;23240;43.210;27.910;2023-04-06T03:18:28;100705.16;;;5.03;100.00
37368;BME280;23240;43.210;27.910;2023-04-06T03:20:54;100708.84;;;5.01;100.00
37368;BME280;23240;43.210;27.910;2023-04-06T03:23:19;100704.28;;;5.03;100.00
37368;BME280;23240;43.210;27.910;2023-04-06T03:25:47;100700.72;;;5.04;100.00
37368;BME280;23240;43.210;27.910;2023-04-06T03:28:13;100703.78;;;4.96;100.00
37368;BME280;23240;43.210;27.910;2023-04-06T03:30:38;100708.78;;;4.86;100.00
37368;BME280;23240;43.210;27.910;2023-04-06T03:33:03;100703.47;;;4.86;100.00
37368;BME280;23240;43.210;27.910;2023-04-06T03:35:29;100702.81;;;4.83;100.00
37368;BME280;23240;43.210;27.910;2023-04-06T03:37:55;100704.34;;;4.87;100.00
37368;BME280;23240;43.210;27.910;2023-04-06T03:40:20;100701.69;;;4.87;100.00
37368;BME280;23240;43.210;27.910;2023-04-06T03:42:45;100701.69;;;4.87;100.00
37368;BME280;23240;43.210;27.910;2023-04-06T03:45:11;100708.53;;;4.91;100.00
37368;BME280;23240;43.210;27.910;2023-04-06T03:47:38;100690.69;;;4.93;100.00
37368;BME280;23240;43.210;27.910;2023-04-06T03:50:03;100710.22;;;4.92;100.00
37368;BME280;23240;43.210;27.910;2023-04-06T03:52:29;100693.56;;;4.90;100.00
37368;BME280;23240;43.210;27.910;2023-04-06T03:54:54;100699.97;;;4.86;100.00
37368;BME280;23240;43.210;27.910;2023-04-06T03:57:19;100706.91;;;4.88;100.00
37368;BME280;23240;43.210;27.910;2023-04-06T03:59:45;100705.44;;;4.83;100.00
37368;BME280;23240;43.210;27.910;2023-04-06T04:02:10;100712.50;;;4.84;100.00
37368;BME280;23240;43.210;27.910;2023-04-06T04:04:36;100708.63;;;4.89;100.00
37368;BME280;23240;43.210;27.910;2023-04-06T04:07:01;100704.34;;;4.87;100.00
37368;BME280;23240;43.210;27.910;2023-04-06T04:09:26;100704.53;;;4.84;100.00
37368;BME280;23240;43.210;27.910;2023-04-06T04:11:52;100705.19;;;4.87;100.00
37368;BME280;23240;43.210;27.910;2023-04-06T04:14:17;100713.84;;;4.91;100.00
37368;BME280;23240;43.210;27.910;2023-04-06T04:16:42;100709.66;;;4.87;100.00
37368;BME280;23240;43.210;27.910;2023-04-06T04:19:07;100714.19;;;4.85;100.00
37368;BME280;23240;43.210;27.910;2023-04-06T04:21:33;100714.19;;;4.85;100.00
37368;BME280;23240;43.210;27.910;2023-04-06T04:23:58;100718.38;;;4.89;100.00
37368;BME280;23240;43.210;27.910;2023-04-06T04:26:23;100716.50;;;4.91;100.00
37368;BME280;23240;43.210;27.910;2023-04-06T04:28:49;100716.13;;;4.97;100.00
37368;BME280;23240;43.210;27.910;2023-04-06T04:31:15;100707.88;;;5.02;100.00
37368;BME280;23240;43.210;27.910;2023-04-06T04:33:43;100706.19;;;5.01;100.00
37368;BME280;23240;43.210;27.910;2023-04-06T04:36:08;100714.91;;;5.03;100.00
37368;BME280;23240;43.210;27.910;2023-04-06T04:38:35;100713.78;;;5.07;100.00
37368;BME280;23240;43.210;27.910;2023-04-06T04:41:00;100714.34;;;5.12;100.00
37368;BME280;23240;43.210;27.910;2023-04-06T04:43:26;100716.84;;;5.15;100.00
37368;BME280;23240;43.210;27.910;2023-04-06T04:45:51;100718.75;;;5.13;100.00
37368;BME280;23240;43.210;27.910;2023-04-06T04:48:17;100715.59;;;5.06;100.00
37368;BME280;23240;43.210;27.910;2023-04-06T04:50:42;100714.63;;;5.07;100.00
37368;BME280;23240;43.210;27.910;2023-04-06T04:53:08;100714.03;;;5.02;100.00
37368;BME280;23240;43.210;27.910;2023-04-06T04:55:33;100721.94;;;5.04;100.00
37368;BME280;23240;43.210;27.910;2023-04-06T04:57:58;100719.19;;;5.05;100.00
37368;BME280;23240;43.210;27.910;2023-04-06T05:00:24;100723.38;;;5.09;100.00
37368;BME280;23240;43.210;27.910;2023-04-06T05:02:49;100724.34;;;5.08;100.00
37368;BME280;23240;43.210;27.910;2023-04-06T05:05:14;100718.75;;;5.13;100.00
37368;BME280;23240;43.210;27.910;2023-04-06T05:07:40;100722.72;;;5.20;100.00
37368;BME280;23240;43.210;27.910;2023-04-06T05:10:05;100721.56;;;5.10;100.00
37368;BME280;23240;43.210;27.910;2023-04-06T05:12:31;100728.31;;;5.15;100.00
37368;BME280;23240;43.210;27.910;2023-04-06T05:14:56;100729.97;;;5.32;100.00
37368;BME280;23240;43.210;27.910;2023-04-06T05:17:22;100726.81;;;5.26;100.00
37368;BME280;23240;43.210;27.910;2023-04-06T05:19:47;100716.97;;;5.28;100.00
37368;BME280;23240;43.210;27.910;2023-04-06T05:22:12;100725.88;;;5.41;100.00
37368;BME280;23240;43.210;27.910;2023-04-06T05:24:41;100720.41;;;5.44;100.00
37368;BME280;23240;43.210;27.910;2023-04-06T05:27:06;100717.38;;;5.50;100.00
37368;BME280;23240;43.210;27.910;2023-04-06T05:29:31;100715.56;;;5.51;100.00
37368;BME280;23240;43.210;27.910;2023-04-06T05:31:57;100721.94;;;5.48;100.00
37368;BME280;23240;43.210;27.910;2023-04-06T05:34:22;100717.94;;;5.55;100.00
37368;BME280;23240;43.210;27.910;2023-04-06T05:36:48;100712.56;;;5.71;100.00
37368;BME280;23240;43.210;27.910;2023-04-06T05:39:13;100711.88;;;5.67;100.00
37368;BME280;23240;43.210;27.910;2023-04-06T05:41:38;100714.94;;;5.61;100.00
37368;BME280;23240;43.210;27.910;2023-04-06T05:44:04;100706.75;;;5.64;100.00
37368;BME280;23240;43.210;27.910;2023-04-06T05:46:29;100703.44;;;5.61;100.00
37368;BME280;23240;43.210;27.910;2023-04-06T05:48:55;100706.56;;;5.53;100.00
37368;BME280;23240;43.210;27.910;2023-04-06T05:51:21;100704.19;;;5.49;100.00
37368;BME280;23240;43.210;27.910;2023-04-06T05:53:46;100701.72;;;5.60;100.00
37368;BME280;23240;43.210;27.910;2023-04-06T05:56:11;100698.41;;;5.56;100.00
37368;BME280;23240;43.210;27.910;2023-04-06T05:58:37;100703.16;;;5.51;100.00
37368;BME280;23240;43.210;27.910;2023-04-06T06:01:02;100698.19;;;5.45;100.00
37368;BME280;23240;43.210;27.910;2023-04-06T06:03:29;100707.69;;;5.49;100.00
37368;BME280;23240;43.210;27.910;2023-04-06T06:05:59;100699.72;;;5.63;100.00
37368;BME280;23240;43.210;27.910;2023-04-06T06:08:24;100695.56;;;5.74;100.00
37368;BME280;23240;43.210;27.910;2023-04-06T06:10:50;100698.50;;;5.69;100.00
37368;BME280;23240;43.210;27.910;2023-04-06T06:13:15;100690.22;;;5.74;100.00
37368;BME280;23240;43.210;27.910;2023-04-06T06:15:41;100694.25;;;5.81;100.00
37368;BME280;23240;43.210;27.910;2023-04-06T06:18:06;100693.28;;;5.82;100.00
37368;BME280;23240;43.210;27.910;2023-04-06T06:20:31;100689.69;;;5.97;100.00
37368;BME280;23240;43.210;27.910;2023-04-06T06:22:57;100693.84;;;6.15;100.00
37368;BME280;23240;43.210;27.910;2023-04-06T06:25:23;100694.59;;;5.89;100.00
37368;BME280;23240;43.210;27.910;2023-04-06T06:27:49;100694.88;;;5.84;100.00
37368;BME280;23240;43.210;27.910;2023-04-06T06:30:14;100699.75;;;5.92;100.00
37368;BME280;23240;43.210;27.910;2023-04-06T06:32:40;100701.06;;;5.99;100.00
37368;BME280;23240;43.210;27.910;2023-04-06T06:35:05;100695.69;;;6.28;100.00
37368;BME280;23240;43.210;27.910;2023-04-06T06:37:31;100700.00;;;6.43;100.00
37368;BME280;23240;43.210;27.910;2023-04-06T06:39:56;100696.72;;;6.66;100.00
37368;BME280;23240;43.210;27.910;2023-04-06T06:42:22;100698.81;;;6.61;100.00
37368;BME280;23240;43.210;27.910;2023-04-06T06:44:48;100702.25;;;6.63;100.00
37368;BME280;23240;43.210;27.910;2023-04-06T06:47:14;100690.78;;;6.76;100.00
37368;BME280;23240;43.210;27.910;2023-04-06T06:49:40;100698.25;;;6.83;100.00
37368;BME280;23240;43.210;27.910;2023-04-06T06:52:05;100688.81;;;6.92;100.00
37368;BME280;23240;43.210;27.910;2023-04-06T06:54:30;100695.63;;;6.96;100.00
37368;BME280;23240;43.210;27.910;2023-04-06T06:56:56;100686.81;;;7.08;100.00
37368;BME280;23240;43.210;27.910;2023-04-06T06:59:21;100684.94;;;7.36;100.00
37368;BME280;23240;43.210;27.910;2023-04-06T07:01:47;100675.97;;;7.62;100.00
37368;BME280;23240;43.210;27.910;2023-04-06T07:04:12;100684.47;;;7.67;100.00
37368;BME280;23240;43.210;27.910;2023-04-06T07:06:37;100680.06;;;7.92;100.00
37368;BME280;23240;43.210;27.910;2023-04-06T07:09:03;100679.75;;;8.33;100.00
37368;BME280;23240;43.210;27.910;2023-04-06T07:11:28;100691.81;;;8.39;98.09
37368;BME280;23240;43.210;27.910;2023-04-06T07:13:54;100687.91;;;8.56;98.49
37368;BME280;23240;43.210;27.910;2023-04-06T07:16:19;100692.28;;;8.81;96.90
37368;BME280;23240;43.210;27.910;2023-04-06T07:18:45;100680.44;;;8.96;94.57
37368;BME280;23240;43.210;27.910;2023-04-06T07:21:11;100686.94;;;9.16;95.05
37368;BME280;23240;43.210;27.910;2023-04-06T07:23:36;100689.75;;;9.25;88.95
37368;BME280;23240;43.210;27.910;2023-04-06T07:26:01;100682.78;;;9.12;89.31
37368;BME280;23240;43.210;27.910;2023-04-06T07:28:27;100681.63;;;8.92;89.67
37368;BME280;23240;43.210;27.910;2023-04-06T07:30:52;100675.56;;;8.90;87.65
37368;BME280;23240;43.210;27.910;2023-04-06T07:33:19;100677.81;;;9.18;86.32
37368;BME280;23240;43.210;27.910;2023-04-06T07:35:44;100666.69;;;9.47;82.53
37368;BME280;23240;43.210;27.910;2023-04-06T07:38:10;100667.06;;;9.65;79.80
37368;BME280;23240;43.210;27.910;2023-04-06T07:40:35;100667.81;;;9.89;77.63
37368;BME280;23240;43.210;27.910;2023-04-06T07:43:01;100664.22;;;10.34;75.66
37368;BME280;23240;43.210;27.910;2023-04-06T07:45:27;100669.63;;;9.89;76.85
37368;BME280;23240;43.210;27.910;2023-04-06T07:47:52;100665.88;;;9.58;79.32
37368;BME280;23240;43.210;27.910;2023-04-06T07:50:17;100671.94;;;9.93;79.58
37368;BME280;23240;43.210;27.910;2023-04-06T07:52:43;100674.88;;;10.01;76.64
37368;BME280;23240;43.210;27.910;2023-04-06T07:55:08;100660.84;;;10.09;76.86
37368;BME280;23240;43.210;27.910;2023-04-06T07:57:33;100668.78;;;10.11;77.53
37368;BME280;23240;43.210;27.910;2023-04-06T07:59:59;100664.75;;;10.05;77.18
37368;BME280;23240;43.210;27.910;2023-04-06T08:02:25;100669.28;;;9.82;75.75
37368;BME280;23240;43.210;27.910;2023-04-06T08:04:51;100666.91;;;10.22;74.67
37368;BME280;23240;43.210;27.910;2023-04-06T08:07:16;100663.00;;;10.15;74.94
37368;BME280;23240;43.210;27.910;2023-04-06T08:09:42;100666.66;;;10.37;73.33
37368;BME280;23240;43.210;27.910;2023-04-06T08:12:07;100660.91;;;11.05;71.89
37368;BME280;23240;43.210;27.910;2023-04-06T08:14:32;100656.22;;;10.98;70.31
37368;BME280;23240;43.210;27.910;2023-04-06T08:16:58;100657.00;;;11.10;69.08
37368;BME280;23240;43.210;27.910;2023-04-06T08:19:23;100652.34;;;11.32;68.59
37368;BME280;23240;43.210;27.910;2023-04-06T08:21:48;100653.91;;;11.14;67.68
37368;BME280;23240;43.210;27.910;2023-04-06T08:24:14;100652.41;;;11.00;67.31
37368;BME280;23240;43.210;27.910;2023-04-06T08:26:40;100651.88;;;11.06;67.22
37368;BME280;23240;43.210;27.910;2023-04-06T08:29:05;100648.53;;;11.56;66.04
37368;BME280;23240;43.210;27.910;2023-04-06T08:31:33;100649.31;;;11.77;63.76
37368;BME280;23240;43.210;27.910;2023-04-06T08:33:59;100652.41;;;11.73;62.63
37368;BME280;23240;43.210;27.910;2023-04-06T08:36:25;100649.38;;;11.56;62.75
37368;BME280;23240;43.210;27.910;2023-04-06T08:38:50;100644.03;;;11.36;63.81
37368;BME280;23240;43.210;27.910;2023-04-06T08:41:16;100648.38;;;11.27;64.21
37368;BME280;23240;43.210;27.910;2023-04-06T08:43:47;100647.78;;;11.54;65.49
37368;BME280;23240;43.210;27.910;2023-04-06T08:46:13;100645.72;;;11.98;62.61
37368;BME280;23240;43.210;27.910;2023-04-06T08:48:39;100638.84;;;12.05;62.31
37368;BME280;23240;43.210;27.910;2023-04-06T08:51:05;100638.56;;;11.77;61.30
37368;BME280;23240;43.210;27.910;2023-04-06T08:53:30;100642.50;;;11.94;61.15
37368;BME280;23240;43.210;27.910;2023-04-06T08:55:57;100638.75;;;11.24;62.95
37368;BME280;23240;43.210;27.910;2023-04-06T08:58:22;100644.88;;;11.36;63.63
37368;BME280;23240;43.210;27.910;2023-04-06T09:00:49;100646.34;;;10.98;65.59
37368;BME280;23240;43.210;27.910;2023-04-06T09:03:14;100639.66;;;11.35;65.55
37368;BME280;23240;43.210;27.910;2023-04-06T09:05:41;100633.84;;;11.60;63.73
37368;BME280;23240;43.210;27.910;2023-04-06T09:08:06;100640.38;;;11.16;64.67
37368;BME280;23240;43.210;27.910;2023-04-06T09:10:32;100643.72;;;11.08;67.76
37368;BME280;23240;43.210;27.910;2023-04-06T09:13:04;100640.25;;;11.17;66.47
37368;BME280;23240;43.210;27.910;2023-04-06T09:15:30;100643.97;;;11.26;65.25
37368;BME280;23240;43.210;27.910;2023-04-06T09:17:55;100646.53;;;11.58;64.76
37368;BME280;23240;43.210;27.910;2023-04-06T09:20:24;100640.38;;;11.67;62.21
37368;BME280;23240;43.210;27.910;2023-04-06T09:22:53;100649.72;;;11.73;62.13
37368;BME280;23240;43.210;27.910;2023-04-06T09:25:20;100652.72;;;11.07;62.14
37368;BME280;23240;43.210;27.910;2023-04-06T09:27:46;100654.31;;;10.89;64.11
37368;BME280;23240;43.210;27.910;2023-04-06T09:30:11;100658.06;;;10.65;65.95
37368;BME280;23240;43.210;27.910;2023-04-06T09:32:45;100652.84;;;10.52;67.03
37368;BME280;23240;43.210;27.910;2023-04-06T09:35:12;100649.91;;;10.12;68.39
37368;BME280;23240;43.210;27.910;2023-04-06T09:37:37;100643.66;;;10.34;69.78
37368;BME280;23240;43.210;27.910;2023-04-06T09:40:03;100645.97;;;10.39;69.54
37368;BME280;23240;43.210;27.910;2023-04-06T09:42:28;100649.38;;;10.29;69.81
37368;BME280;23240;43.210;27.910;2023-04-06T09:44:54;100645.63;;;10.32;69.54
37368;BME280;23240;43.210;27.910;2023-04-06T09:47:19;100648.09;;;10.56;68.46
37368;BME280;23240;43.210;27.910;2023-04-06T09:49:45;100649.19;;;10.86;66.00
37368;BME280;23240;43.210;27.910;2023-04-06T09:52:12;100645.88;;;10.93;64.93
37368;BME280;23240;43.210;27.910;2023-04-06T09:54:39;100643.13;;;10.84;65.45
37368;BME280;23240;43.210;27.910;2023-04-06T10:02:29;100653.97;;;10.50;66.98
37368;BME280;23240;43.210;27.910;2023-04-06T10:04:59;100652.16;;;10.50;67.00
37368;BME280;23240;43.210;27.910;2023-04-06T10:07:27;100648.94;;;10.02;72.02
37368;BME280;23240;43.210;27.910;2023-04-06T10:09:53;100639.66;;;10.17;72.01
37368;BME280;23240;43.210;27.910;2023-04-06T10:12:20;100651.13;;;10.31;70.96
37368;BME280;23240;43.210;27.910;2023-04-06T10:14:45;100644.31;;;10.26;71.10
37368;BME280;23240;43.210;27.910;2023-04-06T10:17:11;100652.91;;;10.41;69.13
37368;BME280;23240;43.210;27.910;2023-04-06T10:19:42;100640.28;;;10.64;69.99
37368;BME280;23240;43.210;27.910;2023-04-06T10:22:12;100646.06;;;10.48;68.03
37368;BME280;23240;43.210;27.910;2023-04-06T10:24:40;100643.78;;;10.97;66.75
37368;BME280;23240;43.210;27.910;2023-04-06T10:27:06;100638.84;;;11.44;65.63
37368;BME280;23240;43.210;27.910;2023-04-06T10:29:44;100640.91;;;11.61;63.85
37368;BME280;23240;43.210;27.910;2023-04-06T10:32:10;100638.09;;;11.93;63.34
37368;BME280;23240;43.210;27.910;2023-04-06T10:34:36;100634.00;;;11.99;62.63
37368;BME280;23240;43.210;27.910;2023-04-06T10:37:14;100638.56;;;11.77;61.93
37368;BME280;23240;43.210;27.910;2023-04-06T10:40:13;100635.91;;;11.77;61.27
37368;BME280;23240;43.210;27.910;2023-04-06T10:42:37;100639.50;;;11.57;61.96
37368;BME280;23240;43.210;27.910;2023-04-06T10:45:06;100638.06;;;11.83;61.95
37368;BME280;23240;43.210;27.910;2023-04-06T10:47:41;100630.78;;;11.74;63.62
37368;BME280;23240;43.210;27.910;2023-04-06T10:50:06;100626.13;;;12.07;61.42
37368;BME280;23240;43.210;27.910;2023-04-06T10:52:32;100634.84;;;11.90;61.31
37368;BME280;23240;43.210;27.910;2023-04-06T10:54:57;100627.22;;;11.85;60.77
37368;BME280;23240;43.210;27.910;2023-04-06T10:57:29;100626.69;;;12.01;60.14
37368;BME280;23240;43.210;27.910;2023-04-06T10:59:55;100627.50;;;11.61;60.22
37368;BME280;23240;43.210;27.910;2023-04-06T11:02:21;100632.84;;;11.82;61.75
37368;BME280;23240;43.210;27.910;2023-04-06T11:04:56;100627.16;;;12.25;61.28
37368;BME280;23240;43.210;27.910;2023-04-06T11:07:22;100627.88;;;12.56;59.54
37368;BME280;23240;43.210;27.910;2023-04-06T11:09:49;100624.06;;;12.40;57.74
37368;BME280;23240;43.210;27.910;2023-04-06T11:12:23;100624.19;;;12.19;58.39
37368;BME280;23240;43.210;27.910;2023-04-06T11:15:08;100629.13;;;12.14;59.37
37368;BME280;23240;43.210;27.910;2023-04-06T11:17:34;100632.13;;;12.40;59.23
37368;BME280;23240;43.210;27.910;2023-04-06T11:20:01;100619.47;;;12.01;58.46
37368;BME280;23240;43.210;27.910;2023-04-06T11:22:27;100617.81;;;11.79;58.49
37368;BME280;23240;43.210;27.910;2023-04-06T11:24:53;100619.09;;;12.16;58.48
37368;BME280;23240;43.210;27.910;2023-04-06T11:27:18;100619.81;;;12.47;58.59
37368;BME280;23240;43.210;27.910;2023-04-06T11:29:44;100622.66;;;12.35;58.22
37368;BME280;23240;43.210;27.910;2023-04-06T11:32:19;100616.28;;;12.37;59.68
37368;BME280;23240;43.210;27.910;2023-04-06T11:34:45;100614.72;;;12.15;58.45
37368;BME280;23240;43.210;27.910;2023-04-06T11:37:11;100615.63;;;11.85;59.17
37368;BME280;23240;43.210;27.910;2023-04-06T11:39:39;100607.88;;;12.01;59.08
37368;BME280;23240;43.210;27.910;2023-04-06T11:42:05;100611.84;;;11.66;59.85
37368;BME280;23240;43.210;27.910;2023-04-06T11:44:32;100597.75;;;11.74;60.19
37368;BME280;23240;43.210;27.910;2023-04-06T11:46:58;100603.84;;;11.45;61.71
37368;BME280;23240;43.210;27.910;2023-04-06T11:49:30;100598.75;;;11.42;61.40
37368;BME280;23240;43.210;27.910;2023-04-06T11:51:57;100598.25;;;11.58;61.77
37368;BME280;23240;43.210;27.910;2023-04-06T11:54:35;100595.47;;;11.69;61.01
37368;BME280;23240;43.210;27.910;2023-04-06T11:57:03;100595.91;;;11.74;59.99
37368;BME280;23240;43.210;27.910;2023-04-06T11:59:28;100597.75;;;11.74;59.31
37368;BME280;23240;43.210;27.910;2023-04-06T12:01:53;100581.78;;;11.72;60.14
37368;BME280;23240;43.210;27.910;2023-04-06T12:04:19;100584.84;;;12.08;60.28
37368;BME280;23240;43.210;27.910;2023-04-06T12:06:44;100587.16;;;12.61;58.13
37368;BME280;23240;43.210;27.910;2023-04-06T12:09:10;100585.47;;;12.50;56.38
37368;BME280;23240;43.210;27.910;2023-04-06T12:11:35;100588.88;;;12.33;57.63
37368;BME280;23240;43.210;27.910;2023-04-06T12:14:00;100593.88;;;11.97;56.98
37368;BME280;23240;43.210;27.910;2023-04-06T12:16:29;100584.72;;;12.00;57.88
37368;BME280;23240;43.210;27.910;2023-04-06T12:18:55;100588.41;;;12.38;57.12
37368;BME280;23240;43.210;27.910;2023-04-06T12:21:21;100589.84;;;12.42;56.99
37368;BME280;23240;43.210;27.910;2023-04-06T12:23:46;100591.41;;;12.64;57.38
37368;BME280;23240;43.210;27.910;2023-04-06T12:26:11;100586.00;;;12.93;55.95
37368;BME280;23240;43.210;27.910;2023-04-06T12:28:36;100587.41;;;12.97;54.98
37368;BME280;23240;43.210;27.910;2023-04-06T12:31:02;100584.88;;;12.85;54.73
37368;BME280;23240;43.210;27.910;2023-04-06T12:33:27;100589.06;;;13.17;54.67
37368;BME280;23240;43.210;27.910;2023-04-06T12:35:52;100592.19;;;13.12;54.39
37368;BME280;23240;43.210;27.910;2023-04-06T12:38:18;100587.28;;;12.89;54.87
37368;BME280;23240;43.210;27.910;2023-04-06T12:40:43;100589.41;;;12.75;55.24
37368;BME280;23240;43.210;27.910;2023-04-06T12:43:08;100592.00;;;12.67;56.02
37368;BME280;23240;43.210;27.910;2023-04-06T12:45:34;100591.41;;;12.34;56.96
37368;BME280;23240;43.210;27.910;2023-04-06T12:47:59;100583.50;;;12.33;57.57
37368;BME280;23240;43.210;27.910;2023-04-06T12:50:25;100592.63;;;12.01;57.06
37368;BME280;23240;43.210;27.910;2023-04-06T12:52:51;100593.19;;;11.65;58.35
37368;BME280;23240;43.210;27.910;2023-04-06T12:55:17;100594.72;;;11.88;59.30
37368;BME280;23240;43.210;27.910;2023-04-06T12:57:42;100591.75;;;11.51;59.13
37368;BME280;23240;43.210;27.910;2023-04-06T13:00:07;100589.44;;;11.37;59.86
37368;BME280;23240;43.210;27.910;2023-04-06T13:02:33;100594.34;;;11.31;59.80
37368;BME280;23240;43.210;27.910;2023-04-06T13:04:59;100591.88;;;11.49;60.02
37368;BME280;23240;43.210;27.910;2023-04-06T13:07:24;100598.28;;;11.68;59.17
37368;BME280;23240;43.210;27.910;2023-04-06T13:09:50;100595.00;;;11.54;58.66
37368;BME280;23240;43.210;27.910;2023-04-06T13:12:16;100597.88;;;11.72;58.76